Terminal Aerodrome Forecast
Issued by NWS Missoula, MT

Home | Current Version | Previous Version | Text Only | Print | Product List | Glossary On
Versions: 1 2 3 4 5 6 7 8 9 10 11 12 13 14 15 16 17 18 19 20 21 22 23 24
000
FTUS45 KMSO 161728
TAFBTM
TAF
KBTM 161728Z 1618/1718 VRB03KT 6SM BR VCFG SCT001
     FM161900 22006KT P6SM SCT003 SCT100
     FM170600 VRB05KT 6SM BR SCT001 BKN015=

USA.gov is the U.S. government's official web portal to all federal, state and local government web resources and services.